sensor_id;sensor_type;location;lat;lon;timestamp;P1;durP1;ratioP1;P2;durP2;ratioP2
52686;SDS011;38584;49.426;8.396;2023-07-02T00:01:43;8.68;;;2.60;;
52686;SDS011;38584;49.426;8.396;2023-07-02T00:04:11;13.07;;;2.60;;
52686;SDS011;38584;49.426;8.396;2023-07-02T00:06:40;8.73;;;2.88;;
52686;SDS011;38584;49.426;8.396;2023-07-02T00:09:07;12.43;;;2.80;;
52686;SDS011;38584;49.426;8.396;2023-07-02T00:11:36;9.73;;;2.72;;
52686;SDS011;38584;49.426;8.396;2023-07-02T00:14:02;9.25;;;2.47;;
52686;SDS011;38584;49.426;8.396;2023-07-02T00:16:28;12.23;;;2.85;;
52686;SDS011;38584;49.426;8.396;2023-07-02T00:18:56;8.90;;;2.50;;
52686;SDS011;38584;49.426;8.396;2023-07-02T00:21:22;8.60;;;2.35;;
52686;SDS011;38584;49.426;8.396;2023-07-02T00:23:47;8.02;;;2.53;;
52686;SDS011;38584;49.426;8.396;2023-07-02T00:26:15;10.70;;;2.50;;
52686;SDS011;38584;49.426;8.396;2023-07-02T00:28:41;10.45;;;2.65;;
52686;SDS011;38584;49.426;8.396;2023-07-02T00:31:06;6.45;;;2.50;;
52686;SDS011;38584;49.426;8.396;2023-07-02T00:33:33;8.70;;;2.78;;
52686;SDS011;38584;49.426;8.396;2023-07-02T00:35:58;6.50;;;2.20;;
52686;SDS011;38584;49.426;8.396;2023-07-02T00:38:25;16.10;;;2.67;;
52686;SDS011;38584;49.426;8.396;2023-07-02T00:40:54;7.82;;;2.42;;
52686;SDS011;38584;49.426;8.396;2023-07-02T00:43:19;6.68;;;2.53;;
52686;SDS011;38584;49.426;8.396;2023-07-02T00:45:45;10.65;;;2.50;;
52686;SDS011;38584;49.426;8.396;2023-07-02T00:48:10;6.72;;;2.40;;
52686;SDS011;38584;49.426;8.396;2023-07-02T00:50:36;11.50;;;2.58;;
52686;SDS011;38584;49.426;8.396;2023-07-02T00:53:01;11.45;;;2.60;;
52686;SDS011;38584;49.426;8.396;2023-07-02T00:55:29;11.65;;;2.30;;
52686;SDS011;38584;49.426;8.396;2023-07-02T00:57:55;11.55;;;2.60;;
52686;SDS011;38584;49.426;8.396;2023-07-02T01:00:21;9.10;;;2.75;;
52686;SDS011;38584;49.426;8.396;2023-07-02T01:02:54;6.80;;;2.50;;
52686;SDS011;38584;49.426;8.396;2023-07-02T01:05:23;6.72;;;2.20;;
52686;SDS011;38584;49.426;8.396;2023-07-02T01:07:50;9.02;;;2.22;;
52686;SDS011;38584;49.426;8.396;2023-07-02T01:10:15;9.73;;;2.42;;
52686;SDS011;38584;49.426;8.396;2023-07-02T01:12:40;7.35;;;2.22;;
52686;SDS011;38584;49.426;8.396;2023-07-02T01:15:06;8.82;;;2.60;;
52686;SDS011;38584;49.426;8.396;2023-07-02T01:17:34;10.30;;;2.50;;
52686;SDS011;38584;49.426;8.396;2023-07-02T01:20:02;6.28;;;2.13;;
52686;SDS011;38584;49.426;8.396;2023-07-02T01:22:28;10.13;;;2.45;;
52686;SDS011;38584;49.426;8.396;2023-07-02T01:24:57;8.25;;;2.58;;
52686;SDS011;38584;49.426;8.396;2023-07-02T01:27:22;13.23;;;2.70;;
52686;SDS011;38584;49.426;8.396;2023-07-02T01:29:51;11.70;;;2.33;;
52686;SDS011;38584;49.426;8.396;2023-07-02T01:32:16;11.02;;;2.50;;
52686;SDS011;38584;49.426;8.396;2023-07-02T01:34:45;10.90;;;2.63;;
52686;SDS011;38584;49.426;8.396;2023-07-02T01:37:20;8.02;;;2.70;;
52686;SDS011;38584;49.426;8.396;2023-07-02T01:39:45;8.55;;;3.00;;
52686;SDS011;38584;49.426;8.396;2023-07-02T01:42:11;8.70;;;2.65;;
52686;SDS011;38584;49.426;8.396;2023-07-02T01:44:41;9.30;;;2.90;;
52686;SDS011;38584;49.426;8.396;2023-07-02T01:47:07;10.77;;;2.80;;
52686;SDS011;38584;49.426;8.396;2023-07-02T01:49:33;8.15;;;2.70;;
52686;SDS011;38584;49.426;8.396;2023-07-02T01:52:02;9.65;;;2.70;;
52686;SDS011;38584;49.426;8.396;2023-07-02T01:54:28;9.00;;;2.45;;
52686;SDS011;38584;49.426;8.396;2023-07-02T01:56:53;8.15;;;2.60;;
52686;SDS011;38584;49.426;8.396;2023-07-02T01:59:19;9.85;;;3.00;;
52686;SDS011;38584;49.426;8.396;2023-07-02T02:01:45;9.43;;;2.90;;
52686;SDS011;38584;49.426;8.396;2023-07-02T02:04:10;9.50;;;3.30;;
52686;SDS011;38584;49.426;8.396;2023-07-02T02:06:36;11.77;;;3.50;;
52686;SDS011;38584;49.426;8.396;2023-07-02T02:09:02;15.02;;;3.95;;
52686;SDS011;38584;49.426;8.396;2023-07-02T02:11:33;11.90;;;3.88;;
52686;SDS011;38584;49.426;8.396;2023-07-02T02:13:59;10.65;;;3.35;;
52686;SDS011;38584;49.426;8.396;2023-07-02T02:16:33;13.95;;;4.40;;
52686;SDS011;38584;49.426;8.396;2023-07-02T02:19:02;11.38;;;4.28;;
52686;SDS011;38584;49.426;8.396;2023-07-02T02:21:27;14.43;;;4.47;;
52686;SDS011;38584;49.426;8.396;2023-07-02T02:23:53;13.80;;;4.85;;
52686;SDS011;38584;49.426;8.396;2023-07-02T02:26:18;17.17;;;5.63;;
52686;SDS011;38584;49.426;8.396;2023-07-02T02:28:46;16.38;;;5.43;;
52686;SDS011;38584;49.426;8.396;2023-07-02T02:31:12;15.73;;;5.32;;
52686;SDS011;38584;49.426;8.396;2023-07-02T02:33:37;17.38;;;5.72;;
52686;SDS011;38584;49.426;8.396;2023-07-02T02:36:02;15.75;;;6.20;;
52686;SDS011;38584;49.426;8.396;2023-07-02T02:38:28;15.68;;;5.75;;
52686;SDS011;38584;49.426;8.396;2023-07-02T02:40:56;18.27;;;5.88;;
52686;SDS011;38584;49.426;8.396;2023-07-02T02:43:21;16.50;;;5.60;;
52686;SDS011;38584;49.426;8.396;2023-07-02T02:45:47;14.70;;;6.10;;
52686;SDS011;38584;49.426;8.396;2023-07-02T02:48:18;20.02;;;6.00;;
52686;SDS011;38584;49.426;8.396;2023-07-02T02:50:44;15.77;;;5.70;;
52686;SDS011;38584;49.426;8.396;2023-07-02T02:53:10;15.68;;;5.20;;
52686;SDS011;38584;49.426;8.396;2023-07-02T02:55:36;14.90;;;5.47;;
52686;SDS011;38584;49.426;8.396;2023-07-02T02:58:04;13.70;;;5.28;;
52686;SDS011;38584;49.426;8.396;2023-07-02T03:00:30;13.63;;;4.97;;
52686;SDS011;38584;49.426;8.396;2023-07-02T03:02:55;15.65;;;5.00;;
52686;SDS011;38584;49.426;8.396;2023-07-02T03:05:21;14.13;;;4.93;;
52686;SDS011;38584;49.426;8.396;2023-07-02T03:07:55;15.32;;;5.47;;
52686;SDS011;38584;49.426;8.396;2023-07-02T03:12:47;14.48;;;5.10;;
52686;SDS011;38584;49.426;8.396;2023-07-02T03:15:15;22.38;;;5.07;;
52686;SDS011;38584;49.426;8.396;2023-07-02T03:17:42;14.90;;;5.45;;
52686;SDS011;38584;49.426;8.396;2023-07-02T03:20:07;14.30;;;5.30;;
52686;SDS011;38584;49.426;8.396;2023-07-02T03:22:36;14.85;;;5.82;;
52686;SDS011;38584;49.426;8.396;2023-07-02T03:25:01;15.27;;;5.57;;
52686;SDS011;38584;49.426;8.396;2023-07-02T03:27:27;19.15;;;5.43;;
52686;SDS011;38584;49.426;8.396;2023-07-02T03:29:52;17.52;;;5.57;;
52686;SDS011;38584;49.426;8.396;2023-07-02T03:32:18;15.18;;;5.07;;
52686;SDS011;38584;49.426;8.396;2023-07-02T03:34:43;15.73;;;5.50;;
52686;SDS011;38584;49.426;8.396;2023-07-02T03:37:15;15.07;;;5.70;;
52686;SDS011;38584;49.426;8.396;2023-07-02T03:39:40;15.30;;;6.18;;
52686;SDS011;38584;49.426;8.396;2023-07-02T03:42:05;17.65;;;6.05;;
52686;SDS011;38584;49.426;8.396;2023-07-02T03:44:34;14.90;;;5.22;;
52686;SDS011;38584;49.426;8.396;2023-07-02T03:46:59;15.77;;;6.30;;
52686;SDS011;38584;49.426;8.396;2023-07-02T03:49:24;14.15;;;5.28;;
52686;SDS011;38584;49.426;8.396;2023-07-02T03:51:50;17.88;;;5.53;;
52686;SDS011;38584;49.426;8.396;2023-07-02T03:54:18;14.38;;;6.10;;
52686;SDS011;38584;49.426;8.396;2023-07-02T03:56:46;14.63;;;5.05;;
52686;SDS011;38584;49.426;8.396;2023-07-02T03:59:18;14.73;;;5.50;;
52686;SDS011;38584;49.426;8.396;2023-07-02T04:01:50;17.10;;;5.20;;
52686;SDS011;38584;49.426;8.396;2023-07-02T04:04:19;14.65;;;4.82;;
52686;SDS011;38584;49.426;8.396;2023-07-02T04:06:53;15.30;;;5.53;;
52686;SDS011;38584;49.426;8.396;2023-07-02T04:09:19;18.83;;;5.35;;
52686;SDS011;38584;49.426;8.396;2023-07-02T04:11:44;15.00;;;5.63;;
52686;SDS011;38584;49.426;8.396;2023-07-02T04:14:10;17.73;;;5.47;;
52686;SDS011;38584;49.426;8.396;2023-07-02T04:16:38;15.50;;;5.72;;
52686;SDS011;38584;49.426;8.396;2023-07-02T04:19:03;17.58;;;6.00;;
52686;SDS011;38584;49.426;8.396;2023-07-02T04:21:29;18.52;;;5.72;;
52686;SDS011;38584;49.426;8.396;2023-07-02T04:23:58;17.02;;;5.57;;
52686;SDS011;38584;49.426;8.396;2023-07-02T04:26:23;16.13;;;6.65;;
52686;SDS011;38584;49.426;8.396;2023-07-02T04:28:51;21.42;;;6.18;;
52686;SDS011;38584;49.426;8.396;2023-07-02T04:31:17;15.45;;;6.07;;
52686;SDS011;38584;49.426;8.396;2023-07-02T04:33:42;14.30;;;5.45;;
52686;SDS011;38584;49.426;8.396;2023-07-02T04:36:07;15.40;;;5.97;;
52686;SDS011;38584;49.426;8.396;2023-07-02T04:38:33;19.60;;;5.80;;
52686;SDS011;38584;49.426;8.396;2023-07-02T04:40:58;18.95;;;5.68;;
52686;SDS011;38584;49.426;8.396;2023-07-02T04:43:26;17.88;;;5.85;;
52686;SDS011;38584;49.426;8.396;2023-07-02T04:45:57;16.77;;;5.80;;
52686;SDS011;38584;49.426;8.396;2023-07-02T04:48:22;17.05;;;5.82;;
52686;SDS011;38584;49.426;8.396;2023-07-02T04:50:48;16.83;;;6.90;;
52686;SDS011;38584;49.426;8.396;2023-07-02T04:53:14;20.40;;;6.80;;
52686;SDS011;38584;49.426;8.396;2023-07-02T04:55:40;15.60;;;6.63;;
52686;SDS011;38584;49.426;8.396;2023-07-02T04:58:06;14.32;;;6.30;;
52686;SDS011;38584;49.426;8.396;2023-07-02T05:00:31;18.77;;;6.95;;
52686;SDS011;38584;49.426;8.396;2023-07-02T05:02:56;15.52;;;6.50;;
52686;SDS011;38584;49.426;8.396;2023-07-02T05:05:22;17.05;;;7.13;;
52686;SDS011;38584;49.426;8.396;2023-07-02T05:08:03;17.30;;;6.57;;
52686;SDS011;38584;49.426;8.396;2023-07-02T05:10:32;16.33;;;6.97;;
52686;SDS011;38584;49.426;8.396;2023-07-02T05:12:57;17.15;;;7.10;;
52686;SDS011;38584;49.426;8.396;2023-07-02T05:15:23;17.77;;;7.57;;
52686;SDS011;38584;49.426;8.396;2023-07-02T05:17:52;17.33;;;6.95;;
52686;SDS011;38584;49.426;8.396;2023-07-02T05:20:17;20.48;;;7.05;;
52686;SDS011;38584;49.426;8.396;2023-07-02T05:22:42;17.50;;;7.38;;
52686;SDS011;38584;49.426;8.396;2023-07-02T05:25:08;21.50;;;7.10;;
52686;SDS011;38584;49.426;8.396;2023-07-02T05:27:34;18.25;;;6.93;;
52686;SDS011;38584;49.426;8.396;2023-07-02T05:29:59;23.08;;;7.22;;
52686;SDS011;38584;49.426;8.396;2023-07-02T05:32:24;18.88;;;7.15;;
52686;SDS011;38584;49.426;8.396;2023-07-02T05:34:50;18.05;;;7.13;;
52686;SDS011;38584;49.426;8.396;2023-07-02T05:37:18;18.13;;;7.07;;
52686;SDS011;38584;49.426;8.396;2023-07-02T05:39:43;21.70;;;8.25;;
52686;SDS011;38584;49.426;8.396;2023-07-02T05:42:08;18.65;;;7.50;;
52686;SDS011;38584;49.426;8.396;2023-07-02T05:44:34;20.55;;;8.77;;
52686;SDS011;38584;49.426;8.396;2023-07-02T05:46:59;22.35;;;8.45;;
52686;SDS011;38584;49.426;8.396;2023-07-02T05:49:27;18.27;;;7.22;;
52686;SDS011;38584;49.426;8.396;2023-07-02T05:51:58;19.05;;;8.07;;
52686;SDS011;38584;49.426;8.396;2023-07-02T05:54:24;19.38;;;8.02;;
52686;SDS011;38584;49.426;8.396;2023-07-02T05:56:49;19.83;;;7.88;;
52686;SDS011;38584;49.426;8.396;2023-07-02T05:59:14;20.88;;;8.27;;
52686;SDS011;38584;49.426;8.396;2023-07-02T06:01:43;22.75;;;9.20;;
52686;SDS011;38584;49.426;8.396;2023-07-02T06:04:08;20.48;;;8.43;;
52686;SDS011;38584;49.426;8.396;2023-07-02T06:06:39;20.10;;;8.18;;
52686;SDS011;38584;49.426;8.396;2023-07-02T06:09:05;21.02;;;9.45;;
52686;SDS011;38584;49.426;8.396;2023-07-02T06:11:30;22.48;;;8.88;;
52686;SDS011;38584;49.426;8.396;2023-07-02T06:13:55;22.27;;;9.95;;
52686;SDS011;38584;49.426;8.396;2023-07-02T06:16:24;22.10;;;9.13;;
52686;SDS011;38584;49.426;8.396;2023-07-02T06:18:53;22.77;;;9.57;;
52686;SDS011;38584;49.426;8.396;2023-07-02T06:21:18;23.02;;;8.70;;
52686;SDS011;38584;49.426;8.396;2023-07-02T06:23:47;22.80;;;9.98;;
52686;SDS011;38584;49.426;8.396;2023-07-02T06:26:13;20.58;;;9.82;;
52686;SDS011;38584;49.426;8.396;2023-07-02T06:28:39;25.13;;;9.80;;
52686;SDS011;38584;49.426;8.396;2023-07-02T06:31:04;22.60;;;10.18;;
52686;SDS011;38584;49.426;8.396;2023-07-02T06:33:29;22.08;;;9.93;;
52686;SDS011;38584;49.426;8.396;2023-07-02T06:35:58;24.92;;;9.27;;
52686;SDS011;38584;49.426;8.396;2023-07-02T06:38:23;26.38;;;10.30;;
52686;SDS011;38584;49.426;8.396;2023-07-02T06:40:48;23.95;;;9.23;;
52686;SDS011;38584;49.426;8.396;2023-07-02T06:43:14;22.05;;;10.25;;
52686;SDS011;38584;49.426;8.396;2023-07-02T06:45:39;26.10;;;11.13;;
52686;SDS011;38584;49.426;8.396;2023-07-02T06:48:07;23.13;;;9.40;;
52686;SDS011;38584;49.426;8.396;2023-07-02T06:50:32;25.80;;;10.75;;
52686;SDS011;38584;49.426;8.396;2023-07-02T06:52:58;22.77;;;9.82;;
52686;SDS011;38584;49.426;8.396;2023-07-02T06:55:26;22.70;;;10.07;;
52686;SDS011;38584;49.426;8.396;2023-07-02T06:57:51;20.05;;;9.70;;
52686;SDS011;38584;49.426;8.396;2023-07-02T07:00:24;22.35;;;10.13;;
52686;SDS011;38584;49.426;8.396;2023-07-02T07:02:49;23.45;;;10.57;;
52686;SDS011;38584;49.426;8.396;2023-07-02T07:05:17;24.52;;;10.25;;
52686;SDS011;38584;49.426;8.396;2023-07-02T07:07:43;28.67;;;10.15;;
52686;SDS011;38584;49.426;8.396;2023-07-02T07:10:08;24.40;;;10.75;;
52686;SDS011;38584;49.426;8.396;2023-07-02T07:12:34;21.23;;;9.98;;
52686;SDS011;38584;49.426;8.396;2023-07-02T07:14:59;23.05;;;10.88;;
52686;SDS011;38584;49.426;8.396;2023-07-02T07:17:24;27.25;;;10.88;;
52686;SDS011;38584;49.426;8.396;2023-07-02T07:19:50;28.40;;;13.07;;
52686;SDS011;38584;49.426;8.396;2023-07-02T07:22:15;28.63;;;13.02;;
52686;SDS011;38584;49.426;8.396;2023-07-02T07:24:41;28.98;;;13.32;;
52686;SDS011;38584;49.426;8.396;2023-07-02T07:27:06;29.33;;;13.30;;
52686;SDS011;38584;49.426;8.396;2023-07-02T07:29:32;26.70;;;12.90;;
52686;SDS011;38584;49.426;8.396;2023-07-02T07:31:57;33.05;;;14.52;;
52686;SDS011;38584;49.426;8.396;2023-07-02T07:34:23;29.58;;;12.15;;
52686;SDS011;38584;49.426;8.396;2023-07-02T07:36:48;31.67;;;13.63;;
52686;SDS011;38584;49.426;8.396;2023-07-02T07:39:13;31.10;;;14.68;;
52686;SDS011;38584;49.426;8.396;2023-07-02T07:41:45;38.72;;;14.70;;
52686;SDS011;38584;49.426;8.396;2023-07-02T07:44:17;34.13;;;15.02;;
52686;SDS011;38584;49.426;8.396;2023-07-02T07:46:43;31.30;;;15.15;;
52686;SDS011;38584;49.426;8.396;2023-07-02T07:49:12;31.17;;;14.65;;
52686;SDS011;38584;49.426;8.396;2023-07-02T07:51:38;34.20;;;14.65;;
52686;SDS011;38584;49.426;8.396;2023-07-02T07:54:03;30.40;;;15.35;;
52686;SDS011;38584;49.426;8.396;2023-07-02T07:56:28;33.55;;;15.10;;
52686;SDS011;38584;49.426;8.396;2023-07-02T07:58:54;32.60;;;15.20;;
52686;SDS011;38584;49.426;8.396;2023-07-02T08:01:19;32.50;;;14.30;;
52686;SDS011;38584;49.426;8.396;2023-07-02T08:03:45;30.35;;;14.85;;
52686;SDS011;38584;49.426;8.396;2023-07-02T08:06:11;31.77;;;14.07;;
52686;SDS011;38584;49.426;8.396;2023-07-02T08:08:36;28.25;;;14.27;;
52686;SDS011;38584;49.426;8.396;2023-07-02T08:11:07;28.90;;;14.10;;
52686;SDS011;38584;49.426;8.396;2023-07-02T08:13:32;31.50;;;15.48;;
52686;SDS011;38584;49.426;8.396;2023-07-02T08:15:58;29.92;;;13.90;;
52686;SDS011;38584;49.426;8.396;2023-07-02T08:18:26;27.08;;;13.05;;
52686;SDS011;38584;49.426;8.396;2023-07-02T08:20:51;33.55;;;14.88;;
52686;SDS011;38584;49.426;8.396;2023-07-02T08:23:17;28.08;;;14.57;;
52686;SDS011;38584;49.426;8.396;2023-07-02T08:25:42;31.35;;;14.35;;
52686;SDS011;38584;49.426;8.396;2023-07-02T08:28:07;28.75;;;15.18;;
52686;SDS011;38584;49.426;8.396;2023-07-02T08:30:39;26.88;;;13.40;;
52686;SDS011;38584;49.426;8.396;2023-07-02T08:33:10;30.80;;;15.13;;
52686;SDS011;38584;49.426;8.396;2023-07-02T08:35:36;33.42;;;15.48;;
52686;SDS011;38584;49.426;8.396;2023-07-02T08:38:04;33.08;;;16.52;;
52686;SDS011;38584;49.426;8.396;2023-07-02T08:40:29;34.92;;;15.25;;
52686;SDS011;38584;49.426;8.396;2023-07-02T08:42:57;33.28;;;16.00;;
52686;SDS011;38584;49.426;8.396;2023-07-02T08:45:23;30.90;;;15.13;;
52686;SDS011;38584;49.426;8.396;2023-07-02T08:47:52;32.70;;;16.20;;
52686;SDS011;38584;49.426;8.396;2023-07-02T08:50:21;27.70;;;14.80;;
52686;SDS011;38584;49.426;8.396;2023-07-02T08:52:47;31.83;;;16.23;;
52686;SDS011;38584;49.426;8.396;2023-07-02T08:55:15;30.95;;;15.88;;
52686;SDS011;38584;49.426;8.396;2023-07-02T08:57:41;31.98;;;16.08;;
52686;SDS011;38584;49.426;8.396;2023-07-02T09:00:14;29.25;;;13.43;;
52686;SDS011;38584;49.426;8.396;2023-07-02T09:02:40;30.45;;;14.52;;
52686;SDS011;38584;49.426;8.396;2023-07-02T09:05:05;29.65;;;16.02;;
52686;SDS011;38584;49.426;8.396;2023-07-02T09:07:31;32.53;;;14.90;;
52686;SDS011;38584;49.426;8.396;2023-07-02T09:09:56;29.80;;;14.43;;
52686;SDS011;38584;49.426;8.396;2023-07-02T09:12:31;31.45;;;14.77;;
52686;SDS011;38584;49.426;8.396;2023-07-02T09:15:00;28.55;;;13.93;;
52686;SDS011;38584;49.426;8.396;2023-07-02T09:17:32;25.98;;;12.73;;
52686;SDS011;38584;49.426;8.396;2023-07-02T09:19:59;27.75;;;14.38;;
52686;SDS011;38584;49.426;8.396;2023-07-02T09:22:29;28.38;;;13.88;;
52686;SDS011;38584;49.426;8.396;2023-07-02T09:25:04;29.17;;;14.00;;
52686;SDS011;38584;49.426;8.396;2023-07-02T09:27:48;28.35;;;14.45;;
52686;SDS011;38584;49.426;8.396;2023-07-02T09:30:16;25.70;;;13.48;;
52686;SDS011;38584;49.426;8.396;2023-07-02T09:32:42;26.90;;;14.60;;
52686;SDS011;38584;49.426;8.396;2023-07-02T09:35:08;29.10;;;15.23;;
52686;SDS011;38584;49.426;8.396;2023-07-02T09:37:33;27.48;;;13.93;;
52686;SDS011;38584;49.426;8.396;2023-07-02T09:39:58;33.85;;;15.68;;
52686;SDS011;38584;49.426;8.396;2023-07-02T09:42:25;31.38;;;16.00;;
52686;SDS011;38584;49.426;8.396;2023-07-02T09:44:51;37.83;;;16.55;;
52686;SDS011;38584;49.426;8.396;2023-07-02T09:47:19;30.23;;;16.05;;
52686;SDS011;38584;49.426;8.396;2023-07-02T09:50:08;31.20;;;15.25;;
52686;SDS011;38584;49.426;8.396;2023-07-02T09:52:33;30.98;;;15.05;;
52686;SDS011;38584;49.426;8.396;2023-07-02T09:54:59;31.25;;;16.60;;
52686;SDS011;38584;49.426;8.396;2023-07-02T09:57:25;28.85;;;15.25;;
52686;SDS011;38584;49.426;8.396;2023-07-02T09:59:51;39.70;;;15.70;;
52686;SDS011;38584;49.426;8.396;2023-07-02T10:02:17;29.73;;;15.27;;
52686;SDS011;38584;49.426;8.396;2023-07-02T10:04:46;32.13;;;15.43;;
52686;SDS011;38584;49.426;8.396;2023-07-02T10:07:28;31.67;;;16.02;;
52686;SDS011;38584;49.426;8.396;2023-07-02T10:09:54;33.10;;;14.82;;
52686;SDS011;38584;49.426;8.396;2023-07-02T10:14:46;31.40;;;15.90;;
52686;SDS011;38584;49.426;8.396;2023-07-02T10:17:23;31.50;;;15.95;;
52686;SDS011;38584;49.426;8.396;2023-07-02T10:19:59;32.55;;;16.33;;
52686;SDS011;38584;49.426;8.396;2023-07-02T10:22:42;31.20;;;16.60;;
52686;SDS011;38584;49.426;8.396;2023-07-02T10:25:12;34.83;;;15.02;;
52686;SDS011;38584;49.426;8.396;2023-07-02T10:27:49;29.92;;;15.35;;
52686;SDS011;38584;49.426;8.396;2023-07-02T10:30:17;35.35;;;15.23;;
52686;SDS011;38584;49.426;8.396;2023-07-02T10:32:43;27.75;;;15.18;;
52686;SDS011;38584;49.426;8.396;2023-07-02T10:35:18;32.28;;;16.15;;
52686;SDS011;38584;49.426;8.396;2023-07-02T10:37:43;33.38;;;15.07;;
52686;SDS011;38584;49.426;8.396;2023-07-02T10:40:09;28.55;;;15.15;;
52686;SDS011;38584;49.426;8.396;2023-07-02T10:42:48;28.80;;;16.23;;
52686;SDS011;38584;49.426;8.396;2023-07-02T10:45:17;28.95;;;15.60;;
52686;SDS011;38584;49.426;8.396;2023-07-02T10:47:49;30.25;;;14.80;;
52686;SDS011;38584;49.426;8.396;2023-07-02T10:50:23;39.58;;;15.48;;
52686;SDS011;38584;49.426;8.396;2023-07-02T10:52:49;28.02;;;15.55;;
52686;SDS011;38584;49.426;8.396;2023-07-02T10:55:21;30.45;;;15.85;;
52686;SDS011;38584;49.426;8.396;2023-07-02T10:57:47;31.15;;;16.33;;
52686;SDS011;38584;49.426;8.396;2023-07-02T11:00:15;31.30;;;15.70;;
52686;SDS011;38584;49.426;8.396;2023-07-02T11:02:41;28.13;;;15.27;;
52686;SDS011;38584;49.426;8.396;2023-07-02T11:05:07;31.90;;;16.83;;
52686;SDS011;38584;49.426;8.396;2023-07-02T11:07:37;28.75;;;15.07;;
52686;SDS011;38584;49.426;8.396;2023-07-02T11:10:06;28.98;;;16.23;;
52686;SDS011;38584;49.426;8.396;2023-07-02T11:12:33;32.72;;;15.27;;
52686;SDS011;38584;49.426;8.396;2023-07-02T11:15:14;33.78;;;16.27;;
52686;SDS011;38584;49.426;8.396;2023-07-02T11:17:46;26.13;;;15.02;;
52686;SDS011;38584;49.426;8.396;2023-07-02T11:20:12;27.77;;;15.40;;
52686;SDS011;38584;49.426;8.396;2023-07-02T11:22:39;30.00;;;15.07;;
52686;SDS011;38584;49.426;8.396;2023-07-02T11:25:17;29.13;;;15.73;;
52686;SDS011;38584;49.426;8.396;2023-07-02T11:27:48;30.48;;;14.90;;
52686;SDS011;38584;49.426;8.396;2023-07-02T11:30:13;29.05;;;14.75;;
52686;SDS011;38584;49.426;8.396;2023-07-02T11:32:52;27.35;;;14.13;;
52686;SDS011;38584;49.426;8.396;2023-07-02T11:35:34;24.58;;;13.90;;
52686;SDS011;38584;49.426;8.396;2023-07-02T11:38:03;25.48;;;14.32;;
52686;SDS011;38584;49.426;8.396;2023-07-02T11:40:28;24.65;;;13.77;;
52686;SDS011;38584;49.426;8.396;2023-07-02T11:42:54;26.60;;;15.40;;
52686;SDS011;38584;49.426;8.396;2023-07-02T11:45:22;27.02;;;14.80;;
52686;SDS011;38584;49.426;8.396;2023-07-02T11:47:47;25.45;;;14.52;;
52686;SDS011;38584;49.426;8.396;2023-07-02T11:50:13;28.42;;;15.35;;
52686;SDS011;38584;49.426;8.396;2023-07-02T11:52:38;26.85;;;15.27;;
52686;SDS011;38584;49.426;8.396;2023-07-02T11:55:07;31.42;;;15.13;;
52686;SDS011;38584;49.426;8.396;2023-07-02T11:57:32;27.85;;;14.95;;
52686;SDS011;38584;49.426;8.396;2023-07-02T11:59:57;25.63;;;14.27;;
52686;SDS011;38584;49.426;8.396;2023-07-02T12:02:24;28.63;;;15.18;;
52686;SDS011;38584;49.426;8.396;2023-07-02T12:04:49;29.77;;;15.27;;
52686;SDS011;38584;49.426;8.396;2023-07-02T12:07:21;30.50;;;15.38;;
52686;SDS011;38584;49.426;8.396;2023-07-02T12:09:46;27.30;;;14.90;;
52686;SDS011;38584;49.426;8.396;2023-07-02T12:12:14;29.55;;;14.95;;
52686;SDS011;38584;49.426;8.396;2023-07-02T12:14:39;29.77;;;15.27;;
52686;SDS011;38584;49.426;8.396;2023-07-02T12:17:08;28.13;;;14.95;;
52686;SDS011;38584;49.426;8.396;2023-07-02T12:19:33;25.80;;;15.02;;
52686;SDS011;38584;49.426;8.396;2023-07-02T12:21:59;24.98;;;14.57;;
52686;SDS011;38584;49.426;8.396;2023-07-02T12:24:30;27.30;;;14.20;;
52686;SDS011;38584;49.426;8.396;2023-07-02T12:26:55;25.42;;;15.27;;
52686;SDS011;38584;49.426;8.396;2023-07-02T12:29:20;26.35;;;15.13;;
52686;SDS011;38584;49.426;8.396;2023-07-02T12:31:46;25.52;;;14.43;;
52686;SDS011;38584;49.426;8.396;2023-07-02T12:34:14;28.77;;;15.10;;
52686;SDS011;38584;49.426;8.396;2023-07-02T12:36:40;25.05;;;14.35;;
52686;SDS011;38584;49.426;8.396;2023-07-02T12:39:05;27.60;;;15.50;;
52686;SDS011;38584;49.426;8.396;2023-07-02T12:41:31;27.65;;;15.30;;
52686;SDS011;38584;49.426;8.396;2023-07-02T12:43:56;30.63;;;14.65;;
52686;SDS011;38584;49.426;8.396;2023-07-02T12:46:22;27.88;;;15.57;;
52686;SDS011;38584;49.426;8.396;2023-07-02T12:48:47;25.95;;;14.95;;
52686;SDS011;38584;49.426;8.396;2023-07-02T12:51:12;29.10;;;15.77;;
52686;SDS011;38584;49.426;8.396;2023-07-02T12:53:38;27.17;;;13.50;;
52686;SDS011;38584;49.426;8.396;2023-07-02T12:56:03;28.00;;;15.13;;
52686;SDS011;38584;49.426;8.396;2023-07-02T12:58:29;26.30;;;14.43;;
52686;SDS011;38584;49.426;8.396;2023-07-02T13:00:54;25.42;;;14.95;;
52686;SDS011;38584;49.426;8.396;2023-07-02T13:03:20;26.27;;;14.93;;
52686;SDS011;38584;49.426;8.396;2023-07-02T13:05:48;26.17;;;14.77;;
52686;SDS011;38584;49.426;8.396;2023-07-02T13:08:28;30.20;;;15.10;;
52686;SDS011;38584;49.426;8.396;2023-07-02T13:10:54;28.05;;;15.55;;
52686;SDS011;38584;49.426;8.396;2023-07-02T13:13:19;27.55;;;15.20;;
52686;SDS011;38584;49.426;8.396;2023-07-02T13:15:44;27.52;;;15.10;;
52686;SDS011;38584;49.426;8.396;2023-07-02T13:18:16;26.08;;;14.77;;
52686;SDS011;38584;49.426;8.396;2023-07-02T13:20:41;26.00;;;15.13;;
52686;SDS011;38584;49.426;8.396;2023-07-02T13:23:07;26.88;;;15.65;;
52686;SDS011;38584;49.426;8.396;2023-07-02T13:25:32;27.05;;;15.35;;
52686;SDS011;38584;49.426;8.396;2023-07-02T13:27:57;26.30;;;15.35;;
52686;SDS011;38584;49.426;8.396;2023-07-02T13:30:22;27.02;;;15.40;;
52686;SDS011;38584;49.426;8.396;2023-07-02T13:32:48;26.75;;;15.35;;
52686;SDS011;38584;49.426;8.396;2023-07-02T13:35:13;33.65;;;15.75;;
52686;SDS011;38584;49.426;8.396;2023-07-02T13:37:39;25.35;;;14.68;;
52686;SDS011;38584;49.426;8.396;2023-07-02T13:40:04;30.23;;;15.68;;
52686;SDS011;38584;49.426;8.396;2023-07-02T13:42:30;31.08;;;17.10;;
52686;SDS011;38584;49.426;8.396;2023-07-02T13:44:55;31.35;;;16.33;;
52686;SDS011;38584;49.426;8.396;2023-07-02T13:47:24;29.90;;;16.23;;
52686;SDS011;38584;49.426;8.396;2023-07-02T13:49:52;27.83;;;17.25;;
52686;SDS011;38584;49.426;8.396;2023-07-02T13:52:17;34.20;;;16.30;;
52686;SDS011;38584;49.426;8.396;2023-07-02T13:54:42;29.05;;;15.80;;
52686;SDS011;38584;49.426;8.396;2023-07-02T13:57:08;28.80;;;16.23;;
52686;SDS011;38584;49.426;8.396;2023-07-02T13:59:39;32.30;;;15.60;;
52686;SDS011;38584;49.426;8.396;2023-07-02T14:02:04;31.73;;;16.17;;
52686;SDS011;38584;49.426;8.396;2023-07-02T14:04:30;28.30;;;15.45;;
52686;SDS011;38584;49.426;8.396;2023-07-02T14:06:55;30.05;;;15.23;;
52686;SDS011;38584;49.426;8.396;2023-07-02T14:09:20;28.92;;;15.00;;
52686;SDS011;38584;49.426;8.396;2023-07-02T14:11:52;26.10;;;15.82;;
52686;SDS011;38584;49.426;8.396;2023-07-02T14:14:17;23.00;;;14.43;;
52686;SDS011;38584;49.426;8.396;2023-07-02T14:16:45;25.17;;;15.65;;
52686;SDS011;38584;49.426;8.396;2023-07-02T14:19:11;27.08;;;15.45;;
52686;SDS011;38584;49.426;8.396;2023-07-02T14:21:37;27.50;;;14.85;;
52686;SDS011;38584;49.426;8.396;2023-07-02T14:24:02;28.30;;;14.90;;
52686;SDS011;38584;49.426;8.396;2023-07-02T14:26:29;30.95;;;15.13;;
52686;SDS011;38584;49.426;8.396;2023-07-02T14:28:54;25.02;;;14.82;;
52686;SDS011;38584;49.426;8.396;2023-07-02T14:31:23;29.50;;;15.38;;
52686;SDS011;38584;49.426;8.396;2023-07-02T14:33:48;27.35;;;14.60;;